Time;durP1;ratioP1;P1;durP2;ratioP2;P2;SDS_P1;SDS_P2;PMS_P1;PMS_P2;Temp;Humidity;BMP_temperature;BMP_pressure;BME280_temperature;BME280_humidity;BME280_pressure;Samples;Min_cycle;Max_cycle;Signal;HPM_P1;HPM_P2
2022/07/04 00:00:08;;;;;;;0.20;0.10;;;13.70;99.90;;;;;;4944114;28;89499;-34
2022/07/04 00:02:33;;;;;;;0.20;0.10;;;13.70;99.90;;;;;;4942793;28;90070;-37
2022/07/04 00:04:59;;;;;;;0.32;0.32;;;13.60;99.90;;;;;;4941970;28;90007;-39
2022/07/04 00:07:25;;;;;;;0.20;0.10;;;13.60;99.90;;;;;;4942532;28;89646;-33
2022/07/04 00:09:51;;;;;;;0.20;0.13;;;13.60;99.90;;;;;;4941559;28;89504;-34
2022/07/04 00:12:16;;;;;;;0.47;0.47;;;13.50;99.90;;;;;;4936444;28;88179;-34
2022/07/04 00:14:42;;;;;;;0.20;0.10;;;13.50;99.90;;;;;;4941681;28;90993;-35
2022/07/04 00:17:08;;;;;;;0.20;0.10;;;13.50;99.90;;;;;;4941780;28;90649;-35
2022/07/04 00:19:34;;;;;;;0.20;0.10;;;13.40;99.90;;;;;;4942790;28;90474;-34
2022/07/04 00:21:59;;;;;;;0.43;0.43;;;13.50;99.90;;;;;;4942044;28;89922;-34
2022/07/04 00:24:25;;;;;;;0.22;0.20;;;13.40;99.90;;;;;;4942670;28;90226;-36
2022/07/04 00:26:51;;;;;;;0.20;0.10;;;13.40;99.90;;;;;;4941360;28;89581;-35
2022/07/04 00:29:16;;;;;;;0.90;0.90;;;13.40;99.90;;;;;;4941850;28;89114;-38
2022/07/04 00:31:42;;;;;;;0.20;0.10;;;13.30;99.90;;;;;;4942001;28;89755;-36
2022/07/04 00:34:08;;;;;;;0.20;0.13;;;13.30;99.90;;;;;;4942158;28;89322;-37
2022/07/04 00:36:33;;;;;;;0.20;0.10;;;13.30;99.90;;;;;;4942324;28;89813;-38
2022/07/04 00:38:59;;;;;;;0.20;0.10;;;13.30;99.90;;;;;;4941121;28;89263;-35
2022/07/04 00:41:24;;;;;;;0.20;0.10;;;13.20;99.90;;;;;;4941847;28;89479;-34
2022/07/04 00:44:22;;;;;;;0.40;0.40;;;13.20;99.90;;;;;;4941352;28;90354;-33
2022/07/04 00:46:48;;;;;;;0.20;0.10;;;13.20;99.90;;;;;;4923244;28;89900;-32
2022/07/04 00:49:16;;;;;;;0.30;0.30;;;13.20;99.90;;;;;;4941518;28;88616;-34
2022/07/04 00:51:43;;;;;;;0.35;0.35;;;13.20;99.90;;;;;;4941774;28;89011;-35
2022/07/04 00:54:13;;;;;;;0.20;0.10;;;13.20;99.90;;;;;;4941831;28;90178;-33
2022/07/04 00:56:42;;;;;;;0.20;0.10;;;13.10;99.90;;;;;;4941785;28;89974;-32
2022/07/04 00:59:07;;;;;;;;;;;13.10;99.90;;;;;;4942666;28;88605;-34
2022/07/04 01:01:34;;;;;;;0.20;0.10;;;13.10;99.90;;;;;;4942864;28;89818;-37
2022/07/04 01:04:02;;;;;;;0.20;0.10;;;13.10;99.90;;;;;;4941655;28;89476;-34
2022/07/04 01:06:28;;;;;;;0.20;0.10;;;13.00;99.90;;;;;;4940890;28;90688;-37
2022/07/04 01:08:55;;;;;;;0.20;0.10;;;13.00;99.90;;;;;;4941321;28;90244;-34
2022/07/04 01:11:20;;;;;;;0.20;0.20;;;12.90;99.90;;;;;;4972715;22;87687;-33
2022/07/04 01:13:46;;;;;;;0.30;0.30;;;12.90;99.90;;;;;;4939734;28;91790;-34
2022/07/04 01:16:12;;;;;;;0.57;0.57;;;12.90;99.90;;;;;;4941245;28;90103;-36
2022/07/04 01:18:38;;;;;;;0.20;0.10;;;12.90;99.90;;;;;;4941348;28;89591;-36
2022/07/04 01:21:05;;;;;;;0.20;0.10;;;12.90;99.90;;;;;;4941292;28;88289;-37
2022/07/04 01:23:31;;;;;;;0.30;0.30;;;12.90;99.90;;;;;;4941504;28;90191;-39
2022/07/04 01:25:57;;;;;;;0.40;0.40;;;12.80;99.90;;;;;;4940537;28;89585;-35
2022/07/04 01:28:24;;;;;;;0.20;0.10;;;12.80;99.90;;;;;;4939520;28;89534;-33
2022/07/04 01:30:50;;;;;;;0.20;0.10;;;12.80;99.90;;;;;;4940724;28;89390;-34
2022/07/04 01:33:19;;;;;;;0.20;0.10;;;12.70;99.90;;;;;;4941051;28;90141;-34
2022/07/04 01:35:45;;;;;;;0.20;0.10;;;12.70;99.90;;;;;;4940986;28;91041;-35
2022/07/04 01:38:11;;;;;;;0.40;0.30;;;12.70;99.90;;;;;;4940605;28;89518;-37
2022/07/04 01:40:36;;;;;;;0.25;0.25;;;12.70;99.90;;;;;;4941286;28;89079;-34
2022/07/04 01:43:02;;;;;;;0.20;0.10;;;12.70;99.90;;;;;;4940445;28;90226;-33
2022/07/04 01:45:28;;;;;;;0.20;0.10;;;12.60;99.90;;;;;;4941618;28;89831;-37
2022/07/04 01:47:54;;;;;;;0.30;0.20;;;12.70;99.90;;;;;;4940316;28;89682;-37
2022/07/04 01:50:20;;;;;;;0.20;0.10;;;12.60;99.90;;;;;;4941480;28;89139;-33
2022/07/04 01:52:46;;;;;;;0.70;0.70;;;12.70;99.90;;;;;;4941035;28;90007;-33
2022/07/04 01:55:13;;;;;;;0.20;0.10;;;12.60;99.90;;;;;;4939489;28;90711;-36
2022/07/04 01:57:39;;;;;;;0.20;0.10;;;12.60;99.90;;;;;;4940803;28;89745;-37
2022/07/04 02:02:51;;;;;;;0.20;0.10;;;12.60;99.90;;;;;;4940563;28;90263;-36
2022/07/04 02:05:17;;;;;;;0.20;0.10;;;12.60;99.90;;;;;;4940305;28;90166;-33
2022/07/04 02:07:44;;;;;;;0.20;0.10;;;12.60;99.90;;;;;;4939913;28;89349;-33
2022/07/04 02:10:10;;;;;;;0.20;0.20;;;12.60;99.90;;;;;;4940464;28;89076;-38
2022/07/04 02:15:21;;;;;;;0.20;0.10;;;12.50;99.90;;;;;;4940610;28;89758;-35
2022/07/04 02:17:47;;;;;;;0.55;0.55;;;12.60;99.90;;;;;;4940260;28;89378;-34
2022/07/04 02:20:13;;;;;;;0.45;0.45;;;12.50;99.90;;;;;;4940390;28;90145;-34
2022/07/04 02:22:39;;;;;;;0.85;0.85;;;12.60;99.90;;;;;;4939791;28;90656;-33
2022/07/04 02:25:05;;;;;;;0.20;0.20;;;12.50;99.90;;;;;;4940084;28;89989;-34
2022/07/04 02:27:31;;;;;;;0.20;0.10;;;12.60;99.90;;;;;;4940359;28;89496;-33
2022/07/04 02:29:56;;;;;;;0.20;0.10;;;12.50;99.90;;;;;;4940094;28;89804;-33
2022/07/04 02:32:22;;;;;;;0.20;0.10;;;12.50;99.90;;;;;;4940388;28;90435;-32
2022/07/04 02:34:47;;;;;;;0.20;0.10;;;12.50;99.90;;;;;;4940237;28;88966;-34
2022/07/04 02:37:13;;;;;;;0.20;0.10;;;12.50;99.90;;;;;;4940637;28;89684;-35
2022/07/04 02:39:38;;;;;;;0.20;0.10;;;12.50;99.90;;;;;;4940006;28;89638;-33
2022/07/04 02:42:04;;;;;;;0.20;0.10;;;12.50;99.90;;;;;;4940291;28;90382;-34
2022/07/04 02:44:30;;;;;;;0.20;0.10;;;12.50;99.90;;;;;;4939619;28;91079;-35
2022/07/04 02:46:56;;;;;;;0.20;0.10;;;12.50;99.90;;;;;;4939345;28;89573;-33
2022/07/04 02:49:22;;;;;;;0.20;0.10;;;12.40;99.90;;;;;;4940645;28;90166;-34
2022/07/04 02:51:48;;;;;;;0.20;0.17;;;12.40;99.90;;;;;;4939836;28;90397;-33
2022/07/04 02:54:15;;;;;;;0.20;0.10;;;12.40;99.90;;;;;;4939213;28;89542;-35
2022/07/04 02:56:41;;;;;;;1.25;0.95;;;12.40;99.90;;;;;;4939726;28;89658;-33
2022/07/04 02:59:07;;;;;;;0.30;0.20;;;12.50;99.90;;;;;;4939833;28;89035;-35
2022/07/04 03:01:32;;;;;;;0.20;0.10;;;12.40;99.90;;;;;;4939721;28;90443;-32
2022/07/04 03:03:58;;;;;;;0.20;0.10;;;12.40;99.90;;;;;;4940012;28;91224;-32
2022/07/04 03:06:24;;;;;;;0.20;0.10;;;12.40;99.90;;;;;;4939561;28;89435;-34
2022/07/04 03:08:49;;;;;;;0.20;0.10;;;12.40;99.90;;;;;;4939380;28;89471;-37
2022/07/04 03:11:15;;;;;;;0.20;0.10;;;12.50;99.90;;;;;;4939537;28;90138;-36
2022/07/04 03:13:41;;;;;;;0.25;0.20;;;12.50;99.90;;;;;;4939511;28;89669;-34
2022/07/04 03:16:07;;;;;;;0.30;0.30;;;12.50;99.90;;;;;;4939930;28;88223;-34
2022/07/04 03:18:32;;;;;;;0.20;0.10;;;12.50;99.90;;;;;;4939828;28;89408;-38
2022/07/04 03:20:58;;;;;;;0.20;0.10;;;12.50;99.90;;;;;;4939589;28;90351;-34
2022/07/04 03:23:24;;;;;;;0.20;0.10;;;12.50;99.90;;;;;;4939094;28;89589;-34
2022/07/04 03:25:49;;;;;;;0.65;0.65;;;12.50;99.90;;;;;;4940210;28;89755;-35
2022/07/04 03:28:15;;;;;;;0.50;0.40;;;12.50;99.90;;;;;;4939686;28;89432;-34
2022/07/04 03:30:40;;;;;;;0.20;0.20;;;12.50;99.90;;;;;;4939291;28;90158;-36
2022/07/04 03:33:06;;;;;;;0.20;0.20;;;12.50;99.90;;;;;;4938525;28;91112;-36
2022/07/04 03:35:32;;;;;;;0.20;0.15;;;12.50;99.90;;;;;;4939822;28;90042;-37
2022/07/04 03:37:57;;;;;;;0.35;0.35;;;12.50;99.90;;;;;;4943041;28;88993;-36
2022/07/04 03:40:23;;;;;;;0.40;0.40;;;12.50;99.90;;;;;;4943028;28;90313;-34
2022/07/04 03:42:49;;;;;;;0.20;0.15;;;12.50;99.90;;;;;;4942369;28;89741;-36
2022/07/04 03:45:15;;;;;;;0.20;0.10;;;12.50;99.90;;;;;;4942904;28;89427;-35
2022/07/04 03:47:41;;;;;;;1.00;0.38;;;12.50;99.90;;;;;;4942830;28;89476;-34
2022/07/04 03:50:07;;;;;;;0.52;0.38;;;12.50;99.90;;;;;;4943773;28;90104;-33
2022/07/04 03:52:33;;;;;;;0.20;0.20;;;12.50;99.90;;;;;;4942541;28;89609;-36
2022/07/04 03:54:58;;;;;;;0.20;0.10;;;12.60;99.90;;;;;;4942002;28;88963;-34
2022/07/04 03:57:24;;;;;;;0.50;0.50;;;12.60;99.90;;;;;;4941705;28;89166;-35
2022/07/04 03:59:50;;;;;;;0.40;0.40;;;12.60;99.90;;;;;;4942164;28;90272;-35
2022/07/04 04:02:16;;;;;;;0.85;0.85;;;12.60;99.90;;;;;;4943350;28;89605;-34
2022/07/04 04:07:26;;;;;;;0.20;0.20;;;12.70;99.90;;;;;;4942852;28;87968;-36
2022/07/04 04:09:51;;;;;;;0.20;0.10;;;12.80;99.90;;;;;;4941556;28;90902;-35
2022/07/04 04:12:17;;;;;;;1.20;1.20;;;12.70;99.90;;;;;;4942207;28;89985;-39
2022/07/04 04:14:43;;;;;;;1.75;1.33;;;12.80;99.90;;;;;;4942196;28;89738;-34
2022/07/04 04:17:08;;;;;;;1.90;1.80;;;12.80;99.90;;;;;;4942369;28;90173;-38
2022/07/04 04:19:34;;;;;;;0.22;0.22;;;12.80;99.90;;;;;;4942845;28;90221;-35
2022/07/04 04:22:00;;;;;;;0.68;0.68;;;12.80;99.90;;;;;;4941018;28;90622;-32
2022/07/04 04:24:25;;;;;;;0.20;0.20;;;12.90;99.90;;;;;;4941117;28;90254;-37
2022/07/04 04:26:51;;;;;;;0.25;0.22;;;12.90;99.90;;;;;;4941721;28;88094;-38
2022/07/04 04:29:16;;;;;;;0.38;0.38;;;13.00;99.90;;;;;;4941877;28;90190;-36
2022/07/04 04:31:42;;;;;;;0.40;0.40;;;13.10;99.90;;;;;;4941842;28;89959;-34
2022/07/04 04:34:08;;;;;;;0.40;0.40;;;13.30;99.90;;;;;;4941283;28;89443;-36
2022/07/04 04:36:33;;;;;;;0.75;0.75;;;13.50;99.90;;;;;;4942641;28;89053;-35
2022/07/04 04:38:59;;;;;;;0.30;0.30;;;13.70;99.90;;;;;;4941650;28;90283;-34
2022/07/04 04:41:25;;;;;;;0.82;0.82;;;14.00;99.90;;;;;;4942389;28;90119;-34
2022/07/04 04:43:50;;;;;;;0.50;0.50;;;14.10;99.90;;;;;;4941309;28;90466;-37
2022/07/04 04:46:16;;;;;;;0.43;0.43;;;14.30;99.90;;;;;;4940808;28;88557;-35
2022/07/04 04:48:42;;;;;;;1.40;0.35;;;14.50;99.90;;;;;;4941702;28;90211;-35
2022/07/04 04:51:07;;;;;;;0.52;0.52;;;14.70;99.90;;;;;;4941535;28;89573;-34
2022/07/04 04:53:33;;;;;;;0.30;0.30;;;14.90;99.90;;;;;;4942371;28;89946;-36
2022/07/04 04:55:58;;;;;;;0.95;0.95;;;15.20;99.90;;;;;;4941461;28;88526;-36
2022/07/04 04:58:24;;;;;;;0.30;0.30;;;15.30;99.90;;;;;;4941771;28;90346;-35
2022/07/04 05:00:50;;;;;;;0.20;0.20;;;15.50;99.90;;;;;;4941306;28;91629;-35
2022/07/04 05:03:16;;;;;;;0.20;0.20;;;15.70;99.90;;;;;;4941863;28;89625;-34
2022/07/04 05:05:42;;;;;;;1.33;0.40;;;15.80;99.90;;;;;;4942115;28;89194;-35
2022/07/04 05:08:08;;;;;;;0.73;0.73;;;15.90;99.90;;;;;;4940990;28;89682;-36
2022/07/04 05:10:34;;;;;;;1.15;1.15;;;16.10;99.90;;;;;;4940601;28;90592;-35
2022/07/04 05:12:59;;;;;;;0.47;0.32;;;16.20;99.90;;;;;;4941129;28;90396;-34
2022/07/04 05:15:25;;;;;;;0.95;0.68;;;16.30;99.90;;;;;;4941338;28;89999;-37
2022/07/04 05:17:51;;;;;;;0.32;0.32;;;16.30;99.90;;;;;;4941781;28;90716;-32
2022/07/04 05:20:17;;;;;;;0.40;0.40;;;16.40;99.90;;;;;;4940882;28;89668;-34
2022/07/04 05:22:42;;;;;;;1.65;1.45;;;16.50;99.90;;;;;;4941171;28;89495;-36
2022/07/04 05:25:08;;;;;;;0.25;0.25;;;16.50;99.90;;;;;;4941616;28;89424;-35
2022/07/04 05:27:34;;;;;;;0.73;0.73;;;16.50;99.90;;;;;;4940970;28;90168;-34
2022/07/04 05:30:00;;;;;;;0.82;0.75;;;16.70;99.90;;;;;;4941941;28;89506;-34
2022/07/04 05:32:26;;;;;;;0.52;0.52;;;16.70;99.90;;;;;;4940458;28;90258;-36
2022/07/04 05:34:52;;;;;;;4.65;0.65;;;16.90;99.90;;;;;;4939274;28;90325;-37
2022/07/04 05:37:18;;;;;;;0.40;0.40;;;17.20;99.90;;;;;;4940885;28;90337;-34
2022/07/04 05:39:44;;;;;;;0.90;0.88;;;17.30;99.90;;;;;;4941373;28;89838;-33
2022/07/04 05:42:09;;;;;;;0.85;0.85;;;17.40;99.90;;;;;;4941350;28;89414;-35
2022/07/04 05:44:35;;;;;;;0.35;0.35;;;17.60;99.90;;;;;;4940770;28;89588;-33
2022/07/04 05:47:00;;;;;;;0.52;0.52;;;17.70;99.90;;;;;;4940897;28;90230;-33
2022/07/04 05:49:26;;;;;;;0.20;0.20;;;17.80;99.90;;;;;;4940535;28;89863;-34
2022/07/04 05:51:52;;;;;;;1.75;1.35;;;17.90;99.90;;;;;;4940755;28;89573;-36
2022/07/04 05:54:17;;;;;;;0.70;0.60;;;18.00;99.90;;;;;;4940894;28;89891;-36
2022/07/04 05:56:43;;;;;;;0.22;0.22;;;18.00;99.90;;;;;;4940320;28;89625;-37
2022/07/04 05:59:09;;;;;;;0.82;0.82;;;17.90;99.90;;;;;;4939405;28;90539;-33
2022/07/04 06:01:36;;;;;;;0.68;0.68;;;18.00;99.90;;;;;;4939780;28;90205;-37
2022/07/04 06:04:03;;;;;;;0.22;0.20;;;18.10;99.90;;;;;;4940958;28;88883;-36
2022/07/04 06:06:29;;;;;;;0.20;0.10;;;18.40;99.90;;;;;;4941203;28;90254;-34
2022/07/04 06:08:55;;;;;;;1.63;0.43;;;18.60;99.90;;;;;;4939594;28;89573;-33
2022/07/04 06:11:21;;;;;;;0.57;0.20;;;18.80;99.90;;;;;;4940496;28;89370;-36
2022/07/04 06:13:48;;;;;;;0.40;0.40;;;19.00;99.90;;;;;;4940058;28;87650;-34
2022/07/04 06:16:13;;;;;;;0.20;0.10;;;19.00;99.90;;;;;;4940575;28;91082;-34
2022/07/04 06:18:39;;;;;;;0.20;0.00;;;19.20;99.90;;;;;;4940499;28;90136;-36
2022/07/04 06:21:05;;;;;;;0.20;0.15;;;19.40;99.90;;;;;;4940332;28;89652;-36
2022/07/04 06:23:30;;;;;;;0.55;0.55;;;19.40;99.90;;;;;;4940066;28;89706;-36
2022/07/04 06:25:56;;;;;;;0.43;0.43;;;19.60;99.90;;;;;;4939560;28;89708;-36
2022/07/04 06:28:22;;;;;;;1.30;1.30;;;19.60;99.90;;;;;;4940305;28;89446;-37
2022/07/04 06:30:47;;;;;;;0.50;0.50;;;19.70;99.90;;;;;;4939624;28;89734;-35
2022/07/04 06:33:13;;;;;;;0.32;0.32;;;19.80;99.90;;;;;;4940297;28;88310;-36
2022/07/04 06:35:44;;;;;;;0.45;0.45;;;19.80;99.90;;;;;;4940251;28;90171;-35
2022/07/04 06:38:18;;;;;;;0.80;0.80;;;19.80;99.90;;;;;;4939664;28;88568;-37
2022/07/04 06:40:44;;;;;;;0.95;0.95;;;19.80;99.90;;;;;;4939617;28;89833;-33
2022/07/04 06:43:10;;;;;;;0.77;0.77;;;19.90;99.90;;;;;;4940023;28;88921;-36
2022/07/04 06:45:36;;;;;;;0.75;0.75;;;20.00;99.90;;;;;;4940188;28;90436;-35
2022/07/04 06:48:03;;;;;;;0.20;0.10;;;20.00;99.90;;;;;;4939301;28;89607;-37
2022/07/04 06:50:32;;;;;;;1.35;1.25;;;20.20;99.90;;;;;;4940056;28;90272;-38
2022/07/04 06:53:02;;;;;;;0.20;0.00;;;20.40;99.90;;;;;;4939882;28;89351;-36
2022/07/04 06:55:27;;;;;;;0.20;0.10;;;20.30;99.90;;;;;;4940463;28;90651;-35
2022/07/04 06:57:53;;;;;;;0.60;0.60;;;20.30;99.90;;;;;;4940164;28;90200;-34
2022/07/04 07:00:19;;;;;;;0.75;0.43;;;20.20;99.90;;;;;;4939145;28;89355;-35
2022/07/04 07:02:44;;;;;;;1.15;0.52;;;20.10;99.90;;;;;;4939903;28;88598;-34
2022/07/04 07:05:10;;;;;;;0.40;0.40;;;20.30;99.90;;;;;;4939563;28;90803;-36
2022/07/04 07:07:36;;;;;;;0.25;0.22;;;20.40;99.90;;;;;;4939387;28;89633;-34
2022/07/04 07:10:02;;;;;;;0.50;0.50;;;20.60;99.90;;;;;;4940644;28;90459;-35
2022/07/04 07:12:29;;;;;;;0.30;0.20;;;20.70;99.90;;;;;;4942997;28;88126;-34
2022/07/04 07:14:54;;;;;;;0.32;0.30;;;21.10;99.90;;;;;;4942738;28;89185;-37
2022/07/04 07:17:20;;;;;;;0.20;0.10;;;21.10;99.90;;;;;;4942851;28;89613;-34
2022/07/04 07:19:46;;;;;;;0.63;0.63;;;21.10;99.90;;;;;;4942596;28;89348;-35
2022/07/04 07:22:13;;;;;;;1.67;0.65;;;21.40;99.90;;;;;;4943517;28;88811;-34
2022/07/04 07:24:38;;;;;;;0.20;0.10;;;21.40;99.90;;;;;;4942889;28;90047;-35
2022/07/04 07:27:05;;;;;;;0.45;0.38;;;21.50;99.90;;;;;;4943534;28;89921;-36
2022/07/04 07:29:31;;;;;;;2.10;0.45;;;21.60;99.90;;;;;;4943150;28;89572;-37
2022/07/04 07:31:57;;;;;;;0.30;0.20;;;21.60;99.90;;;;;;4942839;28;89621;-35
2022/07/04 07:34:22;;;;;;;0.40;0.40;;;21.80;99.90;;;;;;4943169;28;90681;-35
2022/07/04 07:36:48;;;;;;;0.30;0.20;;;21.90;99.90;;;;;;4941555;28;91177;-36
2022/07/04 07:39:14;;;;;;;0.20;0.10;;;22.00;99.90;;;;;;4939845;28;90470;-37
2022/07/04 07:41:39;;;;;;;0.20;0.10;;;21.90;99.90;;;;;;4939067;28;88023;-35
2022/07/04 07:44:05;;;;;;;0.20;0.13;;;21.60;99.90;;;;;;4938929;28;90666;-35
2022/07/04 07:46:31;;;;;;;0.70;0.50;;;21.80;99.90;;;;;;4940291;28;89584;-33
2022/07/04 07:48:56;;;;;;;0.30;0.20;;;22.10;99.90;;;;;;4939519;28;89998;-33
2022/07/04 07:51:22;;;;;;;0.55;0.52;;;22.10;99.90;;;;;;4940412;28;89719;-36
2022/07/04 07:53:47;;;;;;;0.22;0.17;;;22.20;99.90;;;;;;4939113;28;90353;-34
2022/07/04 07:56:13;;;;;;;0.20;0.17;;;22.30;99.90;;;;;;4939657;28;90263;-35
2022/07/04 07:58:39;;;;;;;0.20;0.10;;;22.50;99.90;;;;;;4939689;28;89197;-35
2022/07/04 08:01:04;;;;;;;0.30;0.25;;;22.30;99.90;;;;;;4940264;28;90582;-35
2022/07/04 08:06:15;;;;;;;0.20;0.10;;;22.10;99.90;;;;;;4940203;28;90021;-37
2022/07/04 08:08:42;;;;;;;0.40;0.40;;;22.10;99.90;;;;;;4939714;28;89965;-34
2022/07/04 08:11:07;;;;;;;0.87;0.57;;;21.80;99.90;;;;;;4939536;28;89271;-35
2022/07/04 08:13:33;;;;;;;0.28;0.22;;;21.80;99.90;;;;;;4939485;28;89873;-37
2022/07/04 08:15:59;;;;;;;0.55;0.40;;;21.60;99.90;;;;;;4940454;28;89542;-35
2022/07/04 08:18:25;;;;;;;0.95;0.73;;;21.70;99.90;;;;;;4939403;28;89601;-36
2022/07/04 08:20:51;;;;;;;0.20;0.20;;;21.30;99.90;;;;;;4939538;28;90360;-35
2022/07/04 08:23:16;;;;;;;0.38;0.38;;;21.20;99.90;;;;;;4939412;28;90044;-35
2022/07/04 08:25:42;;;;;;;0.40;0.22;;;21.10;99.90;;;;;;4939416;28;91063;-38
2022/07/04 08:28:08;;;;;;;0.47;0.47;;;20.90;99.90;;;;;;4940476;28;90498;-33
2022/07/04 08:30:34;;;;;;;0.43;0.15;;;20.70;99.90;;;;;;4940140;28;87782;-34
2022/07/04 08:33:00;;;;;;;0.63;0.63;;;20.70;99.90;;;;;;4939493;28;89415;-34
2022/07/04 08:35:26;;;;;;;0.22;0.10;;;20.70;99.90;;;;;;4939656;28;88916;-34
2022/07/04 08:37:55;;;;;;;0.20;0.20;;;20.60;99.90;;;;;;4938940;28;90229;-36
2022/07/04 08:40:22;;;;;;;0.47;0.30;;;20.20;99.90;;;;;;4940123;28;89977;-35
2022/07/04 08:42:49;;;;;;;0.40;0.40;;;20.10;99.90;;;;;;4939777;28;89984;-34
2022/07/04 08:45:16;;;;;;;0.20;0.10;;;19.90;99.90;;;;;;4939657;28;90359;-34
2022/07/04 08:47:43;;;;;;;0.20;0.05;;;20.10;99.90;;;;;;4938749;28;89324;-35
2022/07/04 08:50:15;;;;;;;0.90;0.90;;;20.20;99.90;;;;;;4939747;28;90467;-33
2022/07/04 08:52:43;;;;;;;1.15;1.02;;;20.00;99.90;;;;;;4938999;28;89004;-34
2022/07/04 09:00:43;;;;;;;0.20;0.20;;;21.00;99.90;;;;;;4936511;28;88075;-38
2022/07/04 09:03:09;;;;;;;1.17;1.17;;;21.40;99.90;;;;;;4938075;28;91380;-34
2022/07/04 09:05:35;;;;;;;0.98;0.88;;;20.80;99.90;;;;;;4938597;28;89807;-34
2022/07/04 09:08:03;;;;;;;0.30;0.20;;;20.70;99.90;;;;;;4939442;28;89364;-36
2022/07/04 09:10:30;;;;;;;0.30;0.30;;;20.80;99.90;;;;;;4938521;28;89076;-34
2022/07/04 09:12:56;;;;;;;0.22;0.20;;;21.10;99.90;;;;;;4938527;28;89309;-37
2022/07/04 09:15:22;;;;;;;0.40;0.40;;;21.50;99.90;;;;;;4937892;28;91190;-36
2022/07/04 09:17:48;;;;;;;0.43;0.17;;;22.10;99.90;;;;;;4938072;28;90985;-35
2022/07/04 09:20:19;;;;;;;0.30;0.17;;;22.30;99.90;;;;;;4939195;28;89535;-37
2022/07/04 09:22:45;;;;;;;0.25;0.25;;;22.80;99.90;;;;;;4938246;28;90955;-38
2022/07/04 09:25:15;;;;;;;0.30;0.30;;;22.60;99.90;;;;;;4938933;28;89869;-34
2022/07/04 09:27:47;;;;;;;0.98;0.98;;;22.80;99.90;;;;;;4938900;28;89756;-37
2022/07/04 09:30:15;;;;;;;0.20;0.10;;;22.40;99.90;;;;;;4939156;28;88527;-35
2022/07/04 09:32:52;;;;;;;0.20;0.10;;;22.40;99.90;;;;;;4937930;28;90288;-35
2022/07/04 09:35:20;;;;;;;0.20;0.10;;;22.60;99.90;;;;;;4938884;28;90415;-36
2022/07/04 09:37:47;;;;;;;;;;;22.50;99.90;;;;;;4939201;28;88879;-35
2022/07/04 09:40:33;;;;;;;0.22;0.22;;;22.70;99.90;;;;;;4939819;28;89337;-35
2022/07/04 09:43:10;;;;;;;1.02;0.93;;;22.30;99.90;;;;;;4933414;28;90486;-35
2022/07/04 09:45:52;;;;;;;0.33;0.33;;;21.90;99.90;;;;;;4938708;28;89609;-37
2022/07/04 09:48:18;;;;;;;0.20;0.10;;;21.80;99.90;;;;;;4938261;28;89748;-38
2022/07/04 09:50:43;;;;;;;0.52;0.52;;;21.90;99.90;;;;;;4939449;28;88071;-35
2022/07/04 09:53:09;;;;;;;0.28;0.20;;;22.00;99.90;;;;;;4936599;28;90111;-36
2022/07/04 09:55:40;;;;;;;0.28;0.25;;;22.10;99.90;;;;;;4938767;28;89685;-37
2022/07/04 09:58:12;;;;;;;0.28;0.25;;;21.80;99.90;;;;;;4938623;28;89381;-35
2022/07/04 10:00:42;;;;;;;1.05;1.05;;;21.60;99.90;;;;;;4938113;28;88344;-35
2022/07/04 10:03:32;;;;;;;0.20;0.15;;;21.40;99.90;;;;;;4938250;28;89892;-37
2022/07/04 10:06:11;;;;;;;1.55;0.65;;;21.20;99.90;;;;;;4937723;28;91951;-34
2022/07/04 10:08:39;;;;;;;0.20;0.15;;;21.10;99.90;;;;;;4938227;28;90479;-36
2022/07/04 10:11:06;;;;;;;0.68;0.40;;;20.90;99.90;;;;;;4937899;28;88787;-34
2022/07/04 10:13:32;;;;;;;0.20;0.13;;;20.70;99.90;;;;;;4937521;28;90103;-37
2022/07/04 10:15:58;;;;;;;3.13;1.60;;;20.50;99.90;;;;;;4936477;28;91268;-36
2022/07/04 10:18:24;;;;;;;12.05;0.65;;;20.50;99.90;;;;;;4938075;28;90303;-34
2022/07/04 10:20:51;;;;;;;0.20;0.20;;;20.90;99.90;;;;;;4937473;28;89385;-35
2022/07/04 10:23:21;;;;;;;0.20;0.20;;;21.30;99.90;;;;;;4937267;28;89291;-33
2022/07/04 10:25:52;;;;;;;0.85;0.85;;;21.70;99.90;;;;;;4937184;28;90877;-34
2022/07/04 10:28:18;;;;;;;0.25;0.13;;;21.90;99.90;;;;;;4938014;28;90538;-36
2022/07/04 10:30:48;;;;;;;1.00;0.45;;;21.60;99.90;;;;;;4937483;28;89891;-35
2022/07/04 10:33:15;;;;;;;0.47;0.47;;;21.40;99.90;;;;;;4937448;28;90141;-37
2022/07/04 10:36:04;;;;;;;0.20;0.00;;;21.20;99.90;;;;;;4936953;28;88110;-35
2022/07/04 10:38:51;;;;;;;0.22;0.03;;;21.00;99.90;;;;;;4937167;28;89560;-36
2022/07/04 10:41:21;;;;;;;0.63;0.63;;;21.10;99.90;;;;;;4936983;28;89748;-39
2022/07/04 10:44:03;;;;;;;0.20;0.08;;;21.30;99.90;;;;;;4937602;28;90103;-36
2022/07/04 10:46:37;;;;;;;0.35;0.35;;;21.80;99.90;;;;;;4937715;28;90683;-36
2022/07/04 10:49:13;;;;;;;0.20;0.20;;;22.10;99.90;;;;;;4937712;28;89643;-35
2022/07/04 10:51:43;;;;;;;1.35;0.93;;;21.80;99.90;;;;;;4937505;28;89743;-35
2022/07/04 10:54:16;;;;;;;0.35;0.35;;;21.40;99.90;;;;;;4937074;28;90364;-34
2022/07/04 10:56:46;;;;;;;0.20;0.10;;;21.30;99.90;;;;;;4936316;28;90499;-34
2022/07/04 10:59:25;;;;;;;0.25;0.25;;;21.10;99.90;;;;;;4934503;28;91050;-35
2022/07/04 11:02:13;;;;;;;0.20;0.00;;;21.10;99.90;;;;;;4936569;28;89254;-35
2022/07/04 11:05:08;;;;;;;0.35;0.20;;;20.90;99.90;;;;;;4930683;28;89923;-34
2022/07/04 11:07:33;;;;;;;1.05;0.80;;;21.00;99.90;;;;;;4931290;28;90553;-35
2022/07/04 11:10:11;;;;;;;1.05;0.75;;;21.00;99.90;;;;;;4935728;28;90217;-33
2022/07/04 11:12:55;;;;;;;2.47;0.90;;;21.10;99.90;;;;;;4937173;28;88237;-34
2022/07/04 11:15:32;;;;;;;0.30;0.30;;;21.00;99.90;;;;;;4935457;28;90361;-37
2022/07/04 11:18:02;;;;;;;0.45;0.45;;;20.80;99.90;;;;;;4937738;28;89278;-35
2022/07/04 11:20:31;;;;;;;0.20;0.10;;;20.70;99.90;;;;;;4937068;28;90014;-34
2022/07/04 11:23:07;;;;;;;0.20;0.08;;;21.00;99.90;;;;;;4936310;28;89300;-36
2022/07/04 11:25:33;;;;;;;0.38;0.38;;;21.30;99.90;;;;;;4937159;28;90278;-36
2022/07/04 11:28:20;;;;;;;0.20;0.00;;;21.50;99.90;;;;;;4937046;28;89783;-33
2022/07/04 11:31:13;;;;;;;0.25;0.25;;;22.00;99.90;;;;;;4937091;28;88367;-37
2022/07/04 11:33:41;;;;;;;0.20;0.10;;;22.20;99.90;;;;;;4935699;28;89951;-38
2022/07/04 11:36:20;;;;;;;0.30;0.10;;;22.40;99.90;;;;;;4936831;28;90211;-34
2022/07/04 11:38:48;;;;;;;0.35;0.25;;;22.40;99.90;;;;;;4937055;28;89646;-35
2022/07/04 11:46:47;;;;;;;0.20;0.10;;;22.30;99.90;;;;;;4936624;28;90273;-34
2022/07/04 11:49:13;;;;;;;1.33;1.23;;;22.60;99.90;;;;;;4936846;28;90754;-37
2022/07/04 11:51:43;;;;;;;0.20;0.20;;;22.60;99.90;;;;;;4936305;28;90126;-34
2022/07/04 11:54:09;;;;;;;0.50;0.40;;;22.50;99.90;;;;;;4937848;28;88149;-34
2022/07/04 11:56:35;;;;;;;0.30;0.30;;;22.50;99.90;;;;;;4937753;28;90052;-38
2022/07/04 11:59:11;;;;;;;0.20;0.10;;;22.60;99.90;;;;;;4940311;28;90515;-37
2022/07/04 12:12:57;;;;;;;0.32;0.32;;;22.60;99.90;;;;;;5061295;27;88428;-45
2022/07/04 12:15:25;;;;;;;0.50;0.30;;;22.60;99.90;;;;;;5046812;27;89058;-45
2022/07/04 12:17:55;;;;;;;0.20;0.10;;;22.60;99.90;;;;;;5024228;27;87517;-43
2022/07/04 12:20:22;;;;;;;0.20;0.00;;;22.80;99.90;;;;;;5035408;27;90731;-42
2022/07/04 12:22:59;;;;;;;0.30;0.10;;;23.00;99.90;;;;;;5039667;27;91191;-44
2022/07/04 12:25:34;;;;;;;0.37;0.37;;;22.90;90.50;;;;;;5051513;27;88587;-43
2022/07/04 12:28:10;;;;;;;0.30;0.30;;;22.90;84.30;;;;;;5041453;27;90121;-45
2022/07/04 12:30:51;;;;;;;0.28;0.17;;;22.80;86.50;;;;;;5055759;27;90606;-43
2022/07/04 12:33:25;;;;;;;0.20;0.05;;;23.00;91.50;;;;;;5055961;27;88521;-43
2022/07/04 12:36:02;;;;;;;0.20;0.20;;;23.00;84.50;;;;;;5055907;27;88690;-46
2022/07/04 12:38:27;;;;;;;0.35;0.35;;;23.00;73.50;;;;;;5030309;27;89511;-44
2022/07/04 12:41:18;;;;;;;0.20;0.20;;;22.40;87.30;;;;;;5054507;27;90115;-43
2022/07/04 12:43:48;;;;;;;17.05;3.30;;;22.40;97.70;;;;;;5047198;27;89782;-44
2022/07/04 12:46:33;;;;;;;0.20;0.10;;;22.60;99.90;;;;;;5054926;27;89565;-43
2022/07/04 12:49:01;;;;;;;4.38;3.75;;;22.80;99.90;;;;;;5056326;27;89870;-44
2022/07/04 12:51:32;;;;;;;0.20;0.10;;;23.00;99.90;;;;;;5037441;27;88563;-44
2022/07/04 12:53:59;;;;;;;0.20;0.05;;;22.90;97.00;;;;;;5035017;27;89702;-46
2022/07/04 12:56:31;;;;;;;0.73;0.70;;;22.70;96.70;;;;;;5034557;27;89662;-45
2022/07/04 12:58:57;;;;;;;0.70;0.70;;;22.80;93.60;;;;;;5034700;27;88482;-43
2022/07/04 13:01:23;;;;;;;0.20;0.20;;;22.60;86.00;;;;;;5033838;27;90117;-46
2022/07/04 13:03:49;;;;;;;0.28;0.13;;;22.60;90.10;;;;;;5035098;27;89496;-40
2022/07/04 13:06:14;;;;;;;0.20;0.03;;;22.60;94.90;;;;;;5034730;27;88371;-43
2022/07/04 13:08:40;;;;;;;0.20;0.03;;;22.70;91.00;;;;;;5034686;27;87900;-40
2022/07/04 13:14:04;;;;;;;1.85;0.65;;;22.50;80.50;;;;;;4991446;27;90461;-44
2022/07/04 13:16:30;;;;;;;0.20;0.20;;;22.40;81.80;;;;;;5041628;27;87657;-42
2022/07/04 13:18:56;;;;;;;0.20;0.00;;;22.60;75.30;;;;;;5041430;27;90426;-40
2022/07/04 13:21:22;;;;;;;0.20;0.08;;;22.50;85.20;;;;;;5041454;27;90711;-44
2022/07/04 13:23:48;;;;;;;0.30;0.20;;;22.50;87.20;;;;;;5040664;27;89764;-45
2022/07/04 13:26:13;;;;;;;3.72;0.98;;;22.40;90.10;;;;;;5041694;27;87695;-46